sensor_id;sensor_type;location;lat;lon;timestamp;temperature;humidity
13833;DHT22;6987;19.472;-99.276;2023-11-22T00:02:09;18.20;65.90
13833;DHT22;6987;19.472;-99.276;2023-11-22T00:04:38;18.10;66.60
13833;DHT22;6987;19.472;-99.276;2023-11-22T00:07:07;18.10;66.50
13833;DHT22;6987;19.472;-99.276;2023-11-22T00:09:36;18.00;67.20
13833;DHT22;6987;19.472;-99.276;2023-11-22T00:12:06;18.00;68.10
13833;DHT22;6987;19.472;-99.276;2023-11-22T00:14:37;17.90;67.40
13833;DHT22;6987;19.472;-99.276;2023-11-22T00:17:07;17.90;69.10
13833;DHT22;6987;19.472;-99.276;2023-11-22T00:19:37;17.80;69.20
13833;DHT22;6987;19.472;-99.276;2023-11-22T00:22:07;17.70;69.20
13833;DHT22;6987;19.472;-99.276;2023-11-22T00:24:40;17.70;70.60
13833;DHT22;6987;19.472;-99.276;2023-11-22T00:27:09;17.60;71.80
13833;DHT22;6987;19.472;-99.276;2023-11-22T00:29:43;17.50;69.60
13833;DHT22;6987;19.472;-99.276;2023-11-22T00:32:12;17.40;70.00
13833;DHT22;6987;19.472;-99.276;2023-11-22T00:34:42;17.40;71.50
13833;DHT22;6987;19.472;-99.276;2023-11-22T00:37:11;17.20;71.70
13833;DHT22;6987;19.472;-99.276;2023-11-22T00:39:40;17.20;71.50
13833;DHT22;6987;19.472;-99.276;2023-11-22T00:42:10;17.10;71.10
13833;DHT22;6987;19.472;-99.276;2023-11-22T00:44:41;17.10;72.90
13833;DHT22;6987;19.472;-99.276;2023-11-22T00:47:10;17.00;71.10
13833;DHT22;6987;19.472;-99.276;2023-11-22T00:49:40;17.00;72.50
13833;DHT22;6987;19.472;-99.276;2023-11-22T00:52:09;16.90;71.80
13833;DHT22;6987;19.472;-99.276;2023-11-22T00:54:38;16.90;72.20
13833;DHT22;6987;19.472;-99.276;2023-11-22T00:57:08;16.90;72.70
13833;DHT22;6987;19.472;-99.276;2023-11-22T00:59:37;16.80;72.60
13833;DHT22;6987;19.472;-99.276;2023-11-22T01:02:08;16.80;72.20
13833;DHT22;6987;19.472;-99.276;2023-11-22T01:04:37;16.70;73.60
13833;DHT22;6987;19.472;-99.276;2023-11-22T01:07:07;16.70;74.60
13833;DHT22;6987;19.472;-99.276;2023-11-22T01:09:36;16.70;75.10
13833;DHT22;6987;19.472;-99.276;2023-11-22T01:12:06;16.50;76.70
13833;DHT22;6987;19.472;-99.276;2023-11-22T01:14:36;16.50;74.40
13833;DHT22;6987;19.472;-99.276;2023-11-22T01:17:07;16.40;74.80
13833;DHT22;6987;19.472;-99.276;2023-11-22T01:19:36;16.40;96.90
13833;DHT22;6987;19.472;-99.276;2023-11-22T01:22:06;16.30;75.10
13833;DHT22;6987;19.472;-99.276;2023-11-22T01:24:35;16.30;76.60
13833;DHT22;6987;19.472;-99.276;2023-11-22T01:27:05;16.20;76.00
13833;DHT22;6987;19.472;-99.276;2023-11-22T01:29:34;16.10;79.30
13833;DHT22;6987;19.472;-99.276;2023-11-22T01:32:03;16.00;75.90
13833;DHT22;6987;19.472;-99.276;2023-11-22T01:34:35;16.00;76.20
13833;DHT22;6987;19.472;-99.276;2023-11-22T01:37:04;15.80;76.30
13833;DHT22;6987;19.472;-99.276;2023-11-22T01:39:33;15.80;77.60
13833;DHT22;6987;19.472;-99.276;2023-11-22T01:42:03;15.70;77.30
13833;DHT22;6987;19.472;-99.276;2023-11-22T01:44:33;15.70;80.80
13833;DHT22;6987;19.472;-99.276;2023-11-22T01:47:02;15.50;78.40
13833;DHT22;6987;19.472;-99.276;2023-11-22T01:49:35;15.50;82.60
13833;DHT22;6987;19.472;-99.276;2023-11-22T01:52:05;15.50;80.40
13833;DHT22;6987;19.472;-99.276;2023-11-22T01:54:34;15.50;79.40
13833;DHT22;6987;19.472;-99.276;2023-11-22T01:57:05;15.40;78.50
13833;DHT22;6987;19.472;-99.276;2023-11-22T01:59:36;15.30;79.20
13833;DHT22;6987;19.472;-99.276;2023-11-22T02:02:05;15.20;82.40
13833;DHT22;6987;19.472;-99.276;2023-11-22T02:04:36;15.10;82.10
13833;DHT22;6987;19.472;-99.276;2023-11-22T02:07:05;15.00;80.00
13833;DHT22;6987;19.472;-99.276;2023-11-22T02:09:34;14.80;80.60
13833;DHT22;6987;19.472;-99.276;2023-11-22T02:12:04;14.80;81.00
13833;DHT22;6987;19.472;-99.276;2023-11-22T02:14:33;14.70;81.30
13833;DHT22;6987;19.472;-99.276;2023-11-22T02:17:02;14.60;82.30
13833;DHT22;6987;19.472;-99.276;2023-11-22T02:19:32;14.50;83.70
13833;DHT22;6987;19.472;-99.276;2023-11-22T02:22:03;14.40;82.40
13833;DHT22;6987;19.472;-99.276;2023-11-22T02:24:34;14.40;84.10
13833;DHT22;6987;19.472;-99.276;2023-11-22T02:27:03;14.40;85.50
13833;DHT22;6987;19.472;-99.276;2023-11-22T02:29:33;14.40;86.30
13833;DHT22;6987;19.472;-99.276;2023-11-22T02:32:02;14.40;84.20
13833;DHT22;6987;19.472;-99.276;2023-11-22T02:34:32;14.30;84.50
13833;DHT22;6987;19.472;-99.276;2023-11-22T02:37:02;14.30;57.20
13833;DHT22;6987;19.472;-99.276;2023-11-22T02:39:44;14.30;84.90
13833;DHT22;6987;19.472;-99.276;2023-11-22T02:42:15;14.30;85.40
13833;DHT22;6987;19.472;-99.276;2023-11-22T02:44:45;14.30;88.80
13833;DHT22;6987;19.472;-99.276;2023-11-22T02:47:14;14.30;87.40
13833;DHT22;6987;19.472;-99.276;2023-11-22T02:49:43;14.00;86.50
13833;DHT22;6987;19.472;-99.276;2023-11-22T02:52:13;14.30;86.50
13833;DHT22;6987;19.472;-99.276;2023-11-22T02:54:45;14.30;87.00
13833;DHT22;6987;19.472;-99.276;2023-11-22T02:57:15;14.20;88.80
13833;DHT22;6987;19.472;-99.276;2023-11-22T02:59:44;14.20;87.10
13833;DHT22;6987;19.472;-99.276;2023-11-22T03:02:14;14.20;88.30
13833;DHT22;6987;19.472;-99.276;2023-11-22T03:04:44;14.20;87.10
13833;DHT22;6987;19.472;-99.276;2023-11-22T03:07:14;14.20;86.40
13833;DHT22;6987;19.472;-99.276;2023-11-22T03:09:45;14.10;86.10
13833;DHT22;6987;19.472;-99.276;2023-11-22T03:12:15;14.10;86.80
13833;DHT22;6987;19.472;-99.276;2023-11-22T03:14:46;14.00;90.30
13833;DHT22;6987;19.472;-99.276;2023-11-22T03:17:16;13.90;89.70
13833;DHT22;6987;19.472;-99.276;2023-11-22T03:19:45;13.90;99.90
13833;DHT22;6987;19.472;-99.276;2023-11-22T03:22:14;13.90;90.90
13833;DHT22;6987;19.472;-99.276;2023-11-22T03:24:45;13.90;88.90
13833;DHT22;6987;19.472;-99.276;2023-11-22T03:27:14;13.80;99.90
13833;DHT22;6987;19.472;-99.276;2023-11-22T03:29:44;13.80;88.20
13833;DHT22;6987;19.472;-99.276;2023-11-22T03:32:13;13.90;90.30
13833;DHT22;6987;19.472;-99.276;2023-11-22T03:34:43;13.80;88.70
13833;DHT22;6987;19.472;-99.276;2023-11-22T03:37:12;13.80;90.20
13833;DHT22;6987;19.472;-99.276;2023-11-22T03:39:41;13.70;90.80
13833;DHT22;6987;19.472;-99.276;2023-11-22T03:42:17;13.70;89.10
13833;DHT22;6987;19.472;-99.276;2023-11-22T03:44:46;13.60;88.10
13833;DHT22;6987;19.472;-99.276;2023-11-22T03:47:16;13.60;90.00
13833;DHT22;6987;19.472;-99.276;2023-11-22T03:49:45;13.50;88.90
13833;DHT22;6987;19.472;-99.276;2023-11-22T03:52:14;13.50;90.40
13833;DHT22;6987;19.472;-99.276;2023-11-22T03:54:44;13.50;90.10
13833;DHT22;6987;19.472;-99.276;2023-11-22T03:57:15;13.40;90.30
13833;DHT22;6987;19.472;-99.276;2023-11-22T03:59:44;13.50;92.40
13833;DHT22;6987;19.472;-99.276;2023-11-22T04:02:13;13.50;90.00
13833;DHT22;6987;19.472;-99.276;2023-11-22T04:04:42;13.60;90.60
13833;DHT22;6987;19.472;-99.276;2023-11-22T04:07:12;13.50;90.20
13833;DHT22;6987;19.472;-99.276;2023-11-22T04:09:41;13.50;90.20
13833;DHT22;6987;19.472;-99.276;2023-11-22T04:12:10;13.50;90.50
13833;DHT22;6987;19.472;-99.276;2023-11-22T04:14:41;13.30;90.50
13833;DHT22;6987;19.472;-99.276;2023-11-22T04:17:10;13.20;90.70
13833;DHT22;6987;19.472;-99.276;2023-11-22T04:19:41;13.30;99.90
13833;DHT22;6987;19.472;-99.276;2023-11-22T04:22:10;13.30;90.60
13833;DHT22;6987;19.472;-99.276;2023-11-22T04:24:39;13.40;91.10
13833;DHT22;6987;19.472;-99.276;2023-11-22T04:27:09;13.40;90.80
13833;DHT22;6987;19.472;-99.276;2023-11-22T04:29:40;13.40;92.20
13833;DHT22;6987;19.472;-99.276;2023-11-22T04:32:09;13.40;91.00
13833;DHT22;6987;19.472;-99.276;2023-11-22T04:34:38;13.50;91.70
13833;DHT22;6987;19.472;-99.276;2023-11-22T04:37:08;13.60;91.80
13833;DHT22;6987;19.472;-99.276;2023-11-22T04:39:37;13.60;91.20
13833;DHT22;6987;19.472;-99.276;2023-11-22T04:42:07;13.60;91.30
13833;DHT22;6987;19.472;-99.276;2023-11-22T04:44:36;13.60;90.80
13833;DHT22;6987;19.472;-99.276;2023-11-22T04:47:07;13.60;91.10
13833;DHT22;6987;19.472;-99.276;2023-11-22T04:49:37;13.50;91.60
13833;DHT22;6987;19.472;-99.276;2023-11-22T04:52:06;13.50;95.70
13833;DHT22;6987;19.472;-99.276;2023-11-22T04:54:36;13.40;99.70
13833;DHT22;6987;19.472;-99.276;2023-11-22T04:57:05;13.30;99.90
13833;DHT22;6987;19.472;-99.276;2023-11-22T04:59:35;13.30;99.90
13833;DHT22;6987;19.472;-99.276;2023-11-22T05:02:07;13.20;99.90
13833;DHT22;6987;19.472;-99.276;2023-11-22T05:04:36;13.20;99.90
13833;DHT22;6987;19.472;-99.276;2023-11-22T05:07:05;13.10;99.90
13833;DHT22;6987;19.472;-99.276;2023-11-22T05:09:35;13.10;99.90
13833;DHT22;6987;19.472;-99.276;2023-11-22T05:12:05;13.00;99.90
13833;DHT22;6987;19.472;-99.276;2023-11-22T05:14:34;13.10;99.90
13833;DHT22;6987;19.472;-99.276;2023-11-22T05:17:04;13.00;99.90
13833;DHT22;6987;19.472;-99.276;2023-11-22T05:19:35;12.90;99.90
13833;DHT22;6987;19.472;-99.276;2023-11-22T05:22:05;12.90;99.90
13833;DHT22;6987;19.472;-99.276;2023-11-22T05:24:34;12.90;99.90
13833;DHT22;6987;19.472;-99.276;2023-11-22T05:27:05;12.90;99.90
13833;DHT22;6987;19.472;-99.276;2023-11-22T05:29:35;12.90;99.90
13833;DHT22;6987;19.472;-99.276;2023-11-22T05:32:05;12.90;99.90
13833;DHT22;6987;19.472;-99.276;2023-11-22T05:34:37;12.90;99.90
13833;DHT22;6987;19.472;-99.276;2023-11-22T05:37:07;12.90;99.90
13833;DHT22;6987;19.472;-99.276;2023-11-22T05:39:36;12.80;99.90
13833;DHT22;6987;19.472;-99.276;2023-11-22T05:42:06;12.90;99.90
13833;DHT22;6987;19.472;-99.276;2023-11-22T05:44:35;12.90;99.90
13833;DHT22;6987;19.472;-99.276;2023-11-22T05:47:05;12.90;99.90
13833;DHT22;6987;19.472;-99.276;2023-11-22T05:49:36;12.90;99.90
13833;DHT22;6987;19.472;-99.276;2023-11-22T05:52:05;12.90;99.90
13833;DHT22;6987;19.472;-99.276;2023-11-22T05:54:35;12.90;99.90
13833;DHT22;6987;19.472;-99.276;2023-11-22T05:57:04;12.80;99.90
13833;DHT22;6987;19.472;-99.276;2023-11-22T05:59:34;12.80;99.90
13833;DHT22;6987;19.472;-99.276;2023-11-22T06:02:03;12.80;99.90
13833;DHT22;6987;19.472;-99.276;2023-11-22T06:04:33;12.80;99.90
13833;DHT22;6987;19.472;-99.276;2023-11-22T06:07:04;12.90;99.90
13833;DHT22;6987;19.472;-99.276;2023-11-22T06:09:33;12.90;99.90
13833;DHT22;6987;19.472;-99.276;2023-11-22T06:12:03;12.90;99.90
13833;DHT22;6987;19.472;-99.276;2023-11-22T06:14:33;12.80;99.90
13833;DHT22;6987;19.472;-99.276;2023-11-22T06:17:02;12.70;99.90
13833;DHT22;6987;19.472;-99.276;2023-11-22T06:19:31;12.70;99.90
13833;DHT22;6987;19.472;-99.276;2023-11-22T06:22:02;12.70;99.90
13833;DHT22;6987;19.472;-99.276;2023-11-22T06:24:32;12.70;99.90
13833;DHT22;6987;19.472;-99.276;2023-11-22T06:27:03;12.70;99.90
13833;DHT22;6987;19.472;-99.276;2023-11-22T06:29:32;12.70;99.90
13833;DHT22;6987;19.472;-99.276;2023-11-22T06:32:02;12.70;99.90
13833;DHT22;6987;19.472;-99.276;2023-11-22T06:34:33;12.70;99.90
13833;DHT22;6987;19.472;-99.276;2023-11-22T06:37:04;12.70;99.90
13833;DHT22;6987;19.472;-99.276;2023-11-22T06:39:35;12.80;99.90
13833;DHT22;6987;19.472;-99.276;2023-11-22T06:42:05;12.70;99.90
13833;DHT22;6987;19.472;-99.276;2023-11-22T06:44:34;12.70;99.90
13833;DHT22;6987;19.472;-99.276;2023-11-22T06:47:04;12.70;99.90
13833;DHT22;6987;19.472;-99.276;2023-11-22T06:49:33;12.70;99.90
13833;DHT22;6987;19.472;-99.276;2023-11-22T06:52:04;12.70;99.90
13833;DHT22;6987;19.472;-99.276;2023-11-22T06:54:33;12.70;99.90
13833;DHT22;6987;19.472;-99.276;2023-11-22T06:57:03;12.60;99.90
13833;DHT22;6987;19.472;-99.276;2023-11-22T06:59:32;12.60;99.90
13833;DHT22;6987;19.472;-99.276;2023-11-22T07:02:02;12.70;99.90
13833;DHT22;6987;19.472;-99.276;2023-11-22T07:04:31;12.60;99.90
13833;DHT22;6987;19.472;-99.276;2023-11-22T07:07:01;12.60;99.90
13833;DHT22;6987;19.472;-99.276;2023-11-22T07:09:33;12.60;99.90
13833;DHT22;6987;19.472;-99.276;2023-11-22T07:12:03;12.50;99.90
13833;DHT22;6987;19.472;-99.276;2023-11-22T07:14:34;12.50;99.90
13833;DHT22;6987;19.472;-99.276;2023-11-22T07:17:04;12.60;99.90
13833;DHT22;6987;19.472;-99.276;2023-11-22T07:19:34;12.60;99.90
13833;DHT22;6987;19.472;-99.276;2023-11-22T07:22:05;12.50;99.90
13833;DHT22;6987;19.472;-99.276;2023-11-22T07:24:44;12.50;99.90
13833;DHT22;6987;19.472;-99.276;2023-11-22T07:27:14;12.50;99.90
13833;DHT22;6987;19.472;-99.276;2023-11-22T07:29:44;12.60;99.90
13833;DHT22;6987;19.472;-99.276;2023-11-22T07:32:14;12.50;99.90
13833;DHT22;6987;19.472;-99.276;2023-11-22T07:34:43;12.60;99.90
13833;DHT22;6987;19.472;-99.276;2023-11-22T07:37:12;12.50;99.90
13833;DHT22;6987;19.472;-99.276;2023-11-22T07:39:44;12.50;99.90
13833;DHT22;6987;19.472;-99.276;2023-11-22T07:42:14;12.50;99.90
13833;DHT22;6987;19.472;-99.276;2023-11-22T07:44:43;12.50;99.90
13833;DHT22;6987;19.472;-99.276;2023-11-22T07:47:13;12.40;99.90
13833;DHT22;6987;19.472;-99.276;2023-11-22T07:49:42;12.40;99.90
13833;DHT22;6987;19.472;-99.276;2023-11-22T07:52:11;12.20;99.90
13833;DHT22;6987;19.472;-99.276;2023-11-22T07:54:41;12.30;99.90
13833;DHT22;6987;19.472;-99.276;2023-11-22T07:57:13;12.30;99.90
13833;DHT22;6987;19.472;-99.276;2023-11-22T07:59:42;12.30;99.90
13833;DHT22;6987;19.472;-99.276;2023-11-22T08:02:11;12.30;99.90
13833;DHT22;6987;19.472;-99.276;2023-11-22T08:04:41;12.30;99.90
13833;DHT22;6987;19.472;-99.276;2023-11-22T08:07:11;12.30;99.90
13833;DHT22;6987;19.472;-99.276;2023-11-22T08:09:42;12.30;99.90
13833;DHT22;6987;19.472;-99.276;2023-11-22T08:12:13;12.40;99.90
13833;DHT22;6987;19.472;-99.276;2023-11-22T08:14:42;12.20;99.90
13833;DHT22;6987;19.472;-99.276;2023-11-22T08:17:12;12.20;99.90
13833;DHT22;6987;19.472;-99.276;2023-11-22T08:19:41;12.20;99.90
13833;DHT22;6987;19.472;-99.276;2023-11-22T08:22:13;12.00;99.90
13833;DHT22;6987;19.472;-99.276;2023-11-22T08:24:42;12.00;99.90
13833;DHT22;6987;19.472;-99.276;2023-11-22T08:27:14;12.10;99.90
13833;DHT22;6987;19.472;-99.276;2023-11-22T08:29:44;12.10;99.90
13833;DHT22;6987;19.472;-99.276;2023-11-22T08:32:14;12.10;99.90
13833;DHT22;6987;19.472;-99.276;2023-11-22T08:34:44;12.00;99.90
13833;DHT22;6987;19.472;-99.276;2023-11-22T08:37:14;12.10;99.90
13833;DHT22;6987;19.472;-99.276;2023-11-22T08:39:43;12.20;99.90
13833;DHT22;6987;19.472;-99.276;2023-11-22T08:42:14;12.20;99.90
13833;DHT22;6987;19.472;-99.276;2023-11-22T08:44:43;12.20;99.90
13833;DHT22;6987;19.472;-99.276;2023-11-22T08:47:12;12.30;99.90
13833;DHT22;6987;19.472;-99.276;2023-11-22T08:49:41;12.30;99.90
13833;DHT22;6987;19.472;-99.276;2023-11-22T08:52:11;12.30;99.90
13833;DHT22;6987;19.472;-99.276;2023-11-22T08:54:40;12.40;99.90
13833;DHT22;6987;19.472;-99.276;2023-11-22T08:57:09;12.40;99.90
13833;DHT22;6987;19.472;-99.276;2023-11-22T08:59:40;12.30;99.90
13833;DHT22;6987;19.472;-99.276;2023-11-22T09:02:09;12.50;99.90
13833;DHT22;6987;19.472;-99.276;2023-11-22T09:04:39;12.30;99.90
13833;DHT22;6987;19.472;-99.276;2023-11-22T09:07:09;12.20;99.90
13833;DHT22;6987;19.472;-99.276;2023-11-22T09:09:41;12.10;99.90
13833;DHT22;6987;19.472;-99.276;2023-11-22T09:12:10;12.10;99.90
13833;DHT22;6987;19.472;-99.276;2023-11-22T09:14:42;12.10;99.90
13833;DHT22;6987;19.472;-99.276;2023-11-22T09:17:12;12.10;99.90
13833;DHT22;6987;19.472;-99.276;2023-11-22T09:19:41;12.10;99.90
13833;DHT22;6987;19.472;-99.276;2023-11-22T09:22:10;12.10;99.90
13833;DHT22;6987;19.472;-99.276;2023-11-22T09:24:40;12.20;99.90
13833;DHT22;6987;19.472;-99.276;2023-11-22T09:27:11;12.10;99.90
13833;DHT22;6987;19.472;-99.276;2023-11-22T09:29:46;12.10;99.90
13833;DHT22;6987;19.472;-99.276;2023-11-22T09:32:16;12.00;99.90
13833;DHT22;6987;19.472;-99.276;2023-11-22T09:34:46;12.00;99.90
13833;DHT22;6987;19.472;-99.276;2023-11-22T09:37:16;11.90;99.90
13833;DHT22;6987;19.472;-99.276;2023-11-22T09:39:46;11.90;99.90
13833;DHT22;6987;19.472;-99.276;2023-11-22T09:42:15;11.80;99.90
13833;DHT22;6987;19.472;-99.276;2023-11-22T09:44:47;11.80;99.90
13833;DHT22;6987;19.472;-99.276;2023-11-22T09:47:16;11.80;99.90
13833;DHT22;6987;19.472;-99.276;2023-11-22T09:49:47;11.70;99.90
13833;DHT22;6987;19.472;-99.276;2023-11-22T09:52:21;11.70;99.90
13833;DHT22;6987;19.472;-99.276;2023-11-22T09:54:52;11.80;99.90
13833;DHT22;6987;19.472;-99.276;2023-11-22T09:57:23;11.90;99.90
13833;DHT22;6987;19.472;-99.276;2023-11-22T09:59:56;12.00;99.90
13833;DHT22;6987;19.472;-99.276;2023-11-22T10:02:27;12.00;99.90
13833;DHT22;6987;19.472;-99.276;2023-11-22T10:04:57;12.00;99.90
13833;DHT22;6987;19.472;-99.276;2023-11-22T10:07:26;12.00;99.90
13833;DHT22;6987;19.472;-99.276;2023-11-22T10:09:56;11.90;99.90
13833;DHT22;6987;19.472;-99.276;2023-11-22T10:12:31;11.80;99.90
13833;DHT22;6987;19.472;-99.276;2023-11-22T10:15:15;11.80;99.90
13833;DHT22;6987;19.472;-99.276;2023-11-22T10:17:53;11.80;99.90
13833;DHT22;6987;19.472;-99.276;2023-11-22T10:20:24;11.80;99.90
13833;DHT22;6987;19.472;-99.276;2023-11-22T10:22:54;11.80;99.90
13833;DHT22;6987;19.472;-99.276;2023-11-22T10:25:24;11.80;99.90
13833;DHT22;6987;19.472;-99.276;2023-11-22T10:27:54;11.90;99.90
13833;DHT22;6987;19.472;-99.276;2023-11-22T10:30:28;11.90;99.90
13833;DHT22;6987;19.472;-99.276;2023-11-22T10:32:58;11.90;99.90
13833;DHT22;6987;19.472;-99.276;2023-11-22T10:35:27;11.90;99.90
13833;DHT22;6987;19.472;-99.276;2023-11-22T10:37:56;11.90;99.90
13833;DHT22;6987;19.472;-99.276;2023-11-22T10:40:25;11.80;99.90
13833;DHT22;6987;19.472;-99.276;2023-11-22T10:42:55;11.70;99.90
13833;DHT22;6987;19.472;-99.276;2023-11-22T10:45:30;11.50;99.90
13833;DHT22;6987;19.472;-99.276;2023-11-22T10:48:01;11.50;99.90
13833;DHT22;6987;19.472;-99.276;2023-11-22T10:50:30;11.50;99.90
13833;DHT22;6987;19.472;-99.276;2023-11-22T10:53:02;11.40;99.90
13833;DHT22;6987;19.472;-99.276;2023-11-22T10:55:33;11.40;99.90
13833;DHT22;6987;19.472;-99.276;2023-11-22T10:58:04;11.50;99.90
13833;DHT22;6987;19.472;-99.276;2023-11-22T11:00:35;11.40;99.90
13833;DHT22;6987;19.472;-99.276;2023-11-22T11:03:08;11.40;99.90
13833;DHT22;6987;19.472;-99.276;2023-11-22T11:05:45;11.30;99.90
13833;DHT22;6987;19.472;-99.276;2023-11-22T11:08:17;11.40;99.90
13833;DHT22;6987;19.472;-99.276;2023-11-22T11:10:47;11.40;99.90
13833;DHT22;6987;19.472;-99.276;2023-11-22T11:13:17;11.40;99.90
13833;DHT22;6987;19.472;-99.276;2023-11-22T11:15:50;11.40;99.90
13833;DHT22;6987;19.472;-99.276;2023-11-22T11:18:20;11.40;99.90
13833;DHT22;6987;19.472;-99.276;2023-11-22T11:20:50;11.50;99.90
13833;DHT22;6987;19.472;-99.276;2023-11-22T11:23:20;11.50;99.90
13833;DHT22;6987;19.472;-99.276;2023-11-22T11:25:53;11.50;99.90
13833;DHT22;6987;19.472;-99.276;2023-11-22T11:28:24;11.50;99.90
13833;DHT22;6987;19.472;-99.276;2023-11-22T11:30:56;11.50;99.90
13833;DHT22;6987;19.472;-99.276;2023-11-22T11:33:32;11.50;99.90
13833;DHT22;6987;19.472;-99.276;2023-11-22T11:36:03;11.50;99.90
13833;DHT22;6987;19.472;-99.276;2023-11-22T11:38:35;11.50;99.90
13833;DHT22;6987;19.472;-99.276;2023-11-22T11:41:08;11.50;99.90
13833;DHT22;6987;19.472;-99.276;2023-11-22T11:43:42;11.50;99.90
13833;DHT22;6987;19.472;-99.276;2023-11-22T11:46:15;11.50;99.90
13833;DHT22;6987;19.472;-99.276;2023-11-22T11:48:45;11.40;99.90
13833;DHT22;6987;19.472;-99.276;2023-11-22T11:51:18;11.40;99.90
13833;DHT22;6987;19.472;-99.276;2023-11-22T11:53:47;11.50;99.90
13833;DHT22;6987;19.472;-99.276;2023-11-22T11:56:17;11.50;99.90
13833;DHT22;6987;19.472;-99.276;2023-11-22T11:58:47;11.50;99.90
13833;DHT22;6987;19.472;-99.276;2023-11-22T12:01:19;11.40;99.90
13833;DHT22;6987;19.472;-99.276;2023-11-22T12:03:48;11.40;99.90
13833;DHT22;6987;19.472;-99.276;2023-11-22T12:06:19;11.30;99.90
13833;DHT22;6987;19.472;-99.276;2023-11-22T12:08:48;11.20;99.90
13833;DHT22;6987;19.472;-99.276;2023-11-22T12:11:17;11.20;99.90
13833;DHT22;6987;19.472;-99.276;2023-11-22T12:13:47;11.20;99.90
13833;DHT22;6987;19.472;-99.276;2023-11-22T12:16:19;11.10;99.90
13833;DHT22;6987;19.472;-99.276;2023-11-22T12:18:49;11.10;99.90
13833;DHT22;6987;19.472;-99.276;2023-11-22T12:21:19;11.10;99.90
13833;DHT22;6987;19.472;-99.276;2023-11-22T12:23:49;11.20;99.90
13833;DHT22;6987;19.472;-99.276;2023-11-22T12:26:20;11.20;99.90
13833;DHT22;6987;19.472;-99.276;2023-11-22T12:28:50;11.10;99.90
13833;DHT22;6987;19.472;-99.276;2023-11-22T12:31:21;11.20;99.90
13833;DHT22;6987;19.472;-99.276;2023-11-22T12:33:51;11.30;99.90
13833;DHT22;6987;19.472;-99.276;2023-11-22T12:36:20;11.30;99.90
13833;DHT22;6987;19.472;-99.276;2023-11-22T12:38:50;11.20;99.90
13833;DHT22;6987;19.472;-99.276;2023-11-22T12:41:20;11.20;99.90
13833;DHT22;6987;19.472;-99.276;2023-11-22T12:44:03;11.20;99.90
13833;DHT22;6987;19.472;-99.276;2023-11-22T12:46:49;11.10;99.90
13833;DHT22;6987;19.472;-99.276;2023-11-22T12:49:23;11.10;99.90
13833;DHT22;6987;19.472;-99.276;2023-11-22T12:51:53;11.10;99.90
13833;DHT22;6987;19.472;-99.276;2023-11-22T12:54:23;11.10;99.90
13833;DHT22;6987;19.472;-99.276;2023-11-22T12:56:53;11.10;99.90
13833;DHT22;6987;19.472;-99.276;2023-11-22T12:59:25;11.10;99.90
13833;DHT22;6987;19.472;-99.276;2023-11-22T13:01:58;10.80;99.90
13833;DHT22;6987;19.472;-99.276;2023-11-22T13:04:29;11.00;99.90
13833;DHT22;6987;19.472;-99.276;2023-11-22T13:06:58;11.00;99.90
13833;DHT22;6987;19.472;-99.276;2023-11-22T13:09:28;11.10;99.90
13833;DHT22;6987;19.472;-99.276;2023-11-22T13:11:59;11.20;99.90
13833;DHT22;6987;19.472;-99.276;2023-11-22T13:14:28;11.20;99.90
13833;DHT22;6987;19.472;-99.276;2023-11-22T13:17:06;11.10;99.90
13833;DHT22;6987;19.472;-99.276;2023-11-22T13:19:37;11.00;99.90
13833;DHT22;6987;19.472;-99.276;2023-11-22T13:22:07;11.00;99.90
13833;DHT22;6987;19.472;-99.276;2023-11-22T13:24:36;11.10;99.90
13833;DHT22;6987;19.472;-99.276;2023-11-22T13:27:09;11.10;99.90
13833;DHT22;6987;19.472;-99.276;2023-11-22T13:29:39;11.10;99.90
13833;DHT22;6987;19.472;-99.276;2023-11-22T13:32:10;11.10;99.90
13833;DHT22;6987;19.472;-99.276;2023-11-22T13:34:39;11.20;99.90
13833;DHT22;6987;19.472;-99.276;2023-11-22T13:37:08;11.20;99.90
13833;DHT22;6987;19.472;-99.276;2023-11-22T13:39:37;11.10;99.90
13833;DHT22;6987;19.472;-99.276;2023-11-22T13:42:06;11.20;99.90
13833;DHT22;6987;19.472;-99.276;2023-11-22T13:44:36;11.20;99.90
13833;DHT22;6987;19.472;-99.276;2023-11-22T13:47:05;11.20;99.90
13833;DHT22;6987;19.472;-99.276;2023-11-22T13:49:36;11.40;99.90
13833;DHT22;6987;19.472;-99.276;2023-11-22T13:52:06;11.50;99.90
13833;DHT22;6987;19.472;-99.276;2023-11-22T13:54:35;11.50;99.90
13833;DHT22;6987;19.472;-99.276;2023-11-22T13:57:06;11.50;99.90
13833;DHT22;6987;19.472;-99.276;2023-11-22T13:59:35;11.50;99.90
13833;DHT22;6987;19.472;-99.276;2023-11-22T14:02:04;11.50;99.90
13833;DHT22;6987;19.472;-99.276;2023-11-22T14:04:35;11.60;99.90
13833;DHT22;6987;19.472;-99.276;2023-11-22T14:07:04;11.60;99.90
13833;DHT22;6987;19.472;-99.276;2023-11-22T14:09:33;11.60;99.90
13833;DHT22;6987;19.472;-99.276;2023-11-22T14:12:03;11.70;99.90
13833;DHT22;6987;19.472;-99.276;2023-11-22T14:14:33;11.80;99.90
13833;DHT22;6987;19.472;-99.276;2023-11-22T14:17:02;11.70;99.90
13833;DHT22;6987;19.472;-99.276;2023-11-22T14:19:32;11.70;99.90
13833;DHT22;6987;19.472;-99.276;2023-11-22T14:22:03;11.70;99.90
13833;DHT22;6987;19.472;-99.276;2023-11-22T14:24:34;11.70;99.90
13833;DHT22;6987;19.472;-99.276;2023-11-22T14:27:05;11.80;99.90
13833;DHT22;6987;19.472;-99.276;2023-11-22T14:29:35;11.80;99.90
13833;DHT22;6987;19.472;-99.276;2023-11-22T14:32:04;11.80;99.90
13833;DHT22;6987;19.472;-99.276;2023-11-22T14:34:33;11.90;99.90
13833;DHT22;6987;19.472;-99.276;2023-11-22T14:37:05;11.80;99.90
13833;DHT22;6987;19.472;-99.276;2023-11-22T14:39:35;12.30;99.90
13833;DHT22;6987;19.472;-99.276;2023-11-22T14:42:05;11.80;99.90
13833;DHT22;6987;19.472;-99.276;2023-11-22T14:44:34;11.90;99.90
13833;DHT22;6987;19.472;-99.276;2023-11-22T14:47:04;11.90;99.90
13833;DHT22;6987;19.472;-99.276;2023-11-22T14:49:42;12.10;99.90
13833;DHT22;6987;19.472;-99.276;2023-11-22T14:52:13;12.20;99.90
13833;DHT22;6987;19.472;-99.276;2023-11-22T14:54:43;12.20;99.90
13833;DHT22;6987;19.472;-99.276;2023-11-22T14:57:12;12.20;99.90
13833;DHT22;6987;19.472;-99.276;2023-11-22T14:59:44;12.20;99.90
13833;DHT22;6987;19.472;-99.276;2023-11-22T15:02:13;12.20;99.90
13833;DHT22;6987;19.472;-99.276;2023-11-22T15:04:43;12.30;99.90
13833;DHT22;6987;19.472;-99.276;2023-11-22T15:07:14;12.30;99.90
13833;DHT22;6987;19.472;-99.276;2023-11-22T15:09:43;12.40;99.90
13833;DHT22;6987;19.472;-99.276;2023-11-22T15:12:12;12.40;99.90
13833;DHT22;6987;19.472;-99.276;2023-11-22T15:14:42;12.40;99.90
13833;DHT22;6987;19.472;-99.276;2023-11-22T15:17:13;12.50;99.90
13833;DHT22;6987;19.472;-99.276;2023-11-22T15:19:44;12.50;99.90
13833;DHT22;6987;19.472;-99.276;2023-11-22T15:22:15;12.60;99.90
13833;DHT22;6987;19.472;-99.276;2023-11-22T15:24:45;12.60;99.90
13833;DHT22;6987;19.472;-99.276;2023-11-22T15:27:14;12.50;99.90
13833;DHT22;6987;19.472;-99.276;2023-11-22T15:29:43;12.40;99.90
13833;DHT22;6987;19.472;-99.276;2023-11-22T15:32:12;12.40;99.90
13833;DHT22;6987;19.472;-99.276;2023-11-22T15:34:42;12.50;99.90